sensor_id;sensor_type;location;lat;lon;timestamp;P1;durP1;ratioP1;P2;durP2;ratioP2
78903;SDS011;68291;49.602;8.722;2023-05-09T00:02:40;11.57;;;8.87;;
78903;SDS011;68291;49.602;8.722;2023-05-09T00:05:33;9.63;;;8.63;;
78903;SDS011;68291;49.602;8.722;2023-05-09T00:08:26;12.27;;;8.67;;
78903;SDS011;68291;49.602;8.722;2023-05-09T00:11:43;10.87;;;9.67;;
78903;SDS011;68291;49.602;8.722;2023-05-09T00:14:33;11.70;;;9.17;;
78903;SDS011;68291;49.602;8.722;2023-05-09T00:17:39;10.63;;;9.63;;
78903;SDS011;68291;49.602;8.722;2023-05-09T00:20:43;9.23;;;8.43;;
78903;SDS011;68291;49.602;8.722;2023-05-09T00:23:41;10.50;;;8.47;;
78903;SDS011;68291;49.602;8.722;2023-05-09T00:27:06;10.50;;;8.57;;
78903;SDS011;68291;49.602;8.722;2023-05-09T00:29:55;10.80;;;8.50;;
78903;SDS011;68291;49.602;8.722;2023-05-09T00:32:55;13.77;;;9.20;;
78903;SDS011;68291;49.602;8.722;2023-05-09T00:35:45;9.73;;;8.73;;
78903;SDS011;68291;49.602;8.722;2023-05-09T00:38:34;11.97;;;9.63;;
78903;SDS011;68291;49.602;8.722;2023-05-09T00:41:34;10.37;;;8.97;;
78903;SDS011;68291;49.602;8.722;2023-05-09T00:44:35;9.83;;;8.77;;
78903;SDS011;68291;49.602;8.722;2023-05-09T00:47:33;11.10;;;9.27;;
78903;SDS011;68291;49.602;8.722;2023-05-09T00:50:32;11.47;;;9.60;;
78903;SDS011;68291;49.602;8.722;2023-05-09T00:53:30;11.17;;;9.50;;
78903;SDS011;68291;49.602;8.722;2023-05-09T00:56:21;14.47;;;9.73;;
78903;SDS011;68291;49.602;8.722;2023-05-09T00:59:11;12.00;;;9.43;;
78903;SDS011;68291;49.602;8.722;2023-05-09T01:02:22;12.97;;;9.70;;
78903;SDS011;68291;49.602;8.722;2023-05-09T01:05:28;15.97;;;9.80;;
78903;SDS011;68291;49.602;8.722;2023-05-09T01:08:43;14.80;;;8.10;;
78903;SDS011;68291;49.602;8.722;2023-05-09T01:11:58;12.80;;;9.63;;
78903;SDS011;68291;49.602;8.722;2023-05-09T01:15:07;10.87;;;9.43;;
78903;SDS011;68291;49.602;8.722;2023-05-09T01:18:10;15.43;;;9.87;;
78903;SDS011;68291;49.602;8.722;2023-05-09T01:21:09;10.90;;;9.80;;
78903;SDS011;68291;49.602;8.722;2023-05-09T01:24:31;9.83;;;8.93;;
78903;SDS011;68291;49.602;8.722;2023-05-09T01:27:56;12.83;;;9.03;;
78903;SDS011;68291;49.602;8.722;2023-05-09T01:31:23;13.20;;;9.33;;
78903;SDS011;68291;49.602;8.722;2023-05-09T01:34:16;11.07;;;8.87;;
78903;SDS011;68291;49.602;8.722;2023-05-09T01:37:10;11.83;;;9.97;;
78903;SDS011;68291;49.602;8.722;2023-05-09T01:40:10;10.77;;;8.97;;
78903;SDS011;68291;49.602;8.722;2023-05-09T01:43:04;12.97;;;8.80;;
78903;SDS011;68291;49.602;8.722;2023-05-09T01:46:17;14.90;;;9.67;;
78903;SDS011;68291;49.602;8.722;2023-05-09T01:49:17;12.70;;;9.33;;
78903;SDS011;68291;49.602;8.722;2023-05-09T01:52:22;12.67;;;9.03;;
78903;SDS011;68291;49.602;8.722;2023-05-09T01:55:40;9.73;;;8.40;;
78903;SDS011;68291;49.602;8.722;2023-05-09T01:58:38;10.73;;;9.10;;
78903;SDS011;68291;49.602;8.722;2023-05-09T02:01:40;13.27;;;8.87;;
78903;SDS011;68291;49.602;8.722;2023-05-09T02:04:40;11.73;;;8.73;;
78903;SDS011;68291;49.602;8.722;2023-05-09T02:07:40;11.27;;;9.07;;
78903;SDS011;68291;49.602;8.722;2023-05-09T02:10:36;10.23;;;8.90;;
78903;SDS011;68291;49.602;8.722;2023-05-09T02:13:29;12.53;;;7.80;;
78903;SDS011;68291;49.602;8.722;2023-05-09T02:16:23;9.73;;;8.40;;
78903;SDS011;68291;49.602;8.722;2023-05-09T02:19:34;11.73;;;9.40;;
78903;SDS011;68291;49.602;8.722;2023-05-09T02:22:24;14.13;;;9.23;;
78903;SDS011;68291;49.602;8.722;2023-05-09T02:25:33;11.83;;;9.33;;
78903;SDS011;68291;49.602;8.722;2023-05-09T02:28:41;9.07;;;8.17;;
78903;SDS011;68291;49.602;8.722;2023-05-09T02:32:00;13.40;;;9.87;;
78903;SDS011;68291;49.602;8.722;2023-05-09T02:35:04;15.30;;;9.73;;
78903;SDS011;68291;49.602;8.722;2023-05-09T02:37:58;11.50;;;9.80;;
78903;SDS011;68291;49.602;8.722;2023-05-09T02:41:13;12.03;;;10.37;;
78903;SDS011;68291;49.602;8.722;2023-05-09T02:44:05;11.93;;;10.10;;
78903;SDS011;68291;49.602;8.722;2023-05-09T02:47:03;11.30;;;10.10;;
78903;SDS011;68291;49.602;8.722;2023-05-09T02:50:08;15.80;;;11.37;;
78903;SDS011;68291;49.602;8.722;2023-05-09T02:53:07;13.37;;;10.67;;
78903;SDS011;68291;49.602;8.722;2023-05-09T02:56:05;13.53;;;9.83;;
78903;SDS011;68291;49.602;8.722;2023-05-09T02:58:56;14.40;;;11.67;;
78903;SDS011;68291;49.602;8.722;2023-05-09T03:01:55;14.90;;;11.40;;
78903;SDS011;68291;49.602;8.722;2023-05-09T03:04:53;12.57;;;11.27;;
78903;SDS011;68291;49.602;8.722;2023-05-09T03:07:50;15.23;;;11.07;;
78903;SDS011;68291;49.602;8.722;2023-05-09T03:11:01;13.23;;;11.37;;
78903;SDS011;68291;49.602;8.722;2023-05-09T03:13:57;15.37;;;11.17;;
78903;SDS011;68291;49.602;8.722;2023-05-09T03:16:55;13.03;;;10.13;;
78903;SDS011;68291;49.602;8.722;2023-05-09T03:19:51;13.33;;;10.20;;
78903;SDS011;68291;49.602;8.722;2023-05-09T03:22:51;14.57;;;10.07;;
78903;SDS011;68291;49.602;8.722;2023-05-09T03:26:07;14.40;;;11.20;;
78903;SDS011;68291;49.602;8.722;2023-05-09T03:29:00;13.90;;;11.30;;
78903;SDS011;68291;49.602;8.722;2023-05-09T03:31:50;11.83;;;10.63;;
78903;SDS011;68291;49.602;8.722;2023-05-09T03:34:50;14.50;;;11.33;;
78903;SDS011;68291;49.602;8.722;2023-05-09T03:38:04;12.57;;;11.27;;
78903;SDS011;68291;49.602;8.722;2023-05-09T03:41:17;13.00;;;9.80;;
78903;SDS011;68291;49.602;8.722;2023-05-09T03:44:26;12.27;;;10.97;;
78903;SDS011;68291;49.602;8.722;2023-05-09T03:47:23;11.67;;;10.50;;
78903;SDS011;68291;49.602;8.722;2023-05-09T03:50:31;11.30;;;10.20;;
78903;SDS011;68291;49.602;8.722;2023-05-09T03:53:47;11.53;;;10.27;;
78903;SDS011;68291;49.602;8.722;2023-05-09T03:56:47;11.97;;;10.77;;
78903;SDS011;68291;49.602;8.722;2023-05-09T04:00:01;13.90;;;11.37;;
78903;SDS011;68291;49.602;8.722;2023-05-09T04:03:19;13.67;;;11.63;;
78903;SDS011;68291;49.602;8.722;2023-05-09T04:06:10;16.33;;;13.07;;
78903;SDS011;68291;49.602;8.722;2023-05-09T04:09:12;14.10;;;12.03;;
78903;SDS011;68291;49.602;8.722;2023-05-09T04:12:27;16.33;;;11.63;;
78903;SDS011;68291;49.602;8.722;2023-05-09T04:15:25;14.03;;;11.53;;
78903;SDS011;68291;49.602;8.722;2023-05-09T04:18:16;15.97;;;13.43;;
78903;SDS011;68291;49.602;8.722;2023-05-09T04:21:18;15.50;;;13.93;;
78903;SDS011;68291;49.602;8.722;2023-05-09T04:24:13;15.97;;;13.77;;
78903;SDS011;68291;49.602;8.722;2023-05-09T04:27:15;14.20;;;11.83;;
78903;SDS011;68291;49.602;8.722;2023-05-09T04:30:17;16.57;;;13.07;;
78903;SDS011;68291;49.602;8.722;2023-05-09T04:33:14;15.10;;;12.00;;
78903;SDS011;68291;49.602;8.722;2023-05-09T04:36:04;15.87;;;12.07;;
78903;SDS011;68291;49.602;8.722;2023-05-09T04:39:23;14.77;;;12.07;;
78903;SDS011;68291;49.602;8.722;2023-05-09T04:42:25;14.47;;;12.83;;
78903;SDS011;68291;49.602;8.722;2023-05-09T04:45:27;14.10;;;12.70;;
78903;SDS011;68291;49.602;8.722;2023-05-09T04:48:43;13.97;;;12.57;;
78903;SDS011;68291;49.602;8.722;2023-05-09T04:51:41;14.90;;;12.60;;
78903;SDS011;68291;49.602;8.722;2023-05-09T04:54:35;15.07;;;13.20;;
78903;SDS011;68291;49.602;8.722;2023-05-09T04:57:24;16.30;;;12.20;;
78903;SDS011;68291;49.602;8.722;2023-05-09T05:00:17;14.13;;;12.40;;
78903;SDS011;68291;49.602;8.722;2023-05-09T05:03:35;13.90;;;11.90;;
78903;SDS011;68291;49.602;8.722;2023-05-09T05:06:25;15.50;;;12.50;;
78903;SDS011;68291;49.602;8.722;2023-05-09T05:09:15;14.07;;;12.50;;
78903;SDS011;68291;49.602;8.722;2023-05-09T05:12:38;15.13;;;11.93;;
78903;SDS011;68291;49.602;8.722;2023-05-09T05:15:32;13.73;;;12.27;;
78903;SDS011;68291;49.602;8.722;2023-05-09T05:18:31;12.63;;;11.33;;
78903;SDS011;68291;49.602;8.722;2023-05-09T05:21:48;13.60;;;12.23;;
78903;SDS011;68291;49.602;8.722;2023-05-09T05:24:39;15.03;;;11.90;;
78903;SDS011;68291;49.602;8.722;2023-05-09T05:27:30;13.03;;;11.73;;
78903;SDS011;68291;49.602;8.722;2023-05-09T05:30:31;14.17;;;12.50;;
78903;SDS011;68291;49.602;8.722;2023-05-09T05:33:22;13.73;;;11.90;;
78903;SDS011;68291;49.602;8.722;2023-05-09T05:36:12;16.60;;;12.63;;
78903;SDS011;68291;49.602;8.722;2023-05-09T05:39:10;15.93;;;12.30;;
78903;SDS011;68291;49.602;8.722;2023-05-09T05:42:02;15.43;;;12.77;;
78903;SDS011;68291;49.602;8.722;2023-05-09T05:45:03;14.47;;;12.10;;
78903;SDS011;68291;49.602;8.722;2023-05-09T05:48:09;19.20;;;12.20;;
78903;SDS011;68291;49.602;8.722;2023-05-09T05:51:10;18.00;;;12.33;;
78903;SDS011;68291;49.602;8.722;2023-05-09T05:54:09;14.10;;;12.70;;
78903;SDS011;68291;49.602;8.722;2023-05-09T05:57:07;13.63;;;12.20;;
78903;SDS011;68291;49.602;8.722;2023-05-09T06:00:03;14.07;;;12.57;;
78903;SDS011;68291;49.602;8.722;2023-05-09T06:03:09;14.43;;;12.17;;
78903;SDS011;68291;49.602;8.722;2023-05-09T06:06:15;13.37;;;12.07;;
78903;SDS011;68291;49.602;8.722;2023-05-09T06:09:30;12.50;;;11.20;;
78903;SDS011;68291;49.602;8.722;2023-05-09T06:12:20;15.43;;;10.90;;
78903;SDS011;68291;49.602;8.722;2023-05-09T06:15:36;16.97;;;11.83;;
78903;SDS011;68291;49.602;8.722;2023-05-09T06:18:27;15.93;;;12.00;;
78903;SDS011;68291;49.602;8.722;2023-05-09T06:21:26;15.80;;;11.93;;
78903;SDS011;68291;49.602;8.722;2023-05-09T06:24:25;14.33;;;11.83;;
78903;SDS011;68291;49.602;8.722;2023-05-09T06:27:21;13.10;;;11.80;;
78903;SDS011;68291;49.602;8.722;2023-05-09T06:30:26;12.40;;;11.00;;
78903;SDS011;68291;49.602;8.722;2023-05-09T06:33:42;14.40;;;12.43;;
78903;SDS011;68291;49.602;8.722;2023-05-09T06:36:32;16.13;;;12.53;;
78903;SDS011;68291;49.602;8.722;2023-05-09T06:39:21;16.33;;;13.30;;
78903;SDS011;68291;49.602;8.722;2023-05-09T06:42:26;16.10;;;14.43;;
78903;SDS011;68291;49.602;8.722;2023-05-09T06:45:26;14.67;;;13.17;;
78903;SDS011;68291;49.602;8.722;2023-05-09T06:48:24;13.83;;;12.37;;
78903;SDS011;68291;49.602;8.722;2023-05-09T06:51:43;15.60;;;13.70;;
78903;SDS011;68291;49.602;8.722;2023-05-09T06:54:32;15.80;;;14.13;;
78903;SDS011;68291;49.602;8.722;2023-05-09T06:57:27;16.87;;;14.33;;
78903;SDS011;68291;49.602;8.722;2023-05-09T07:00:18;15.90;;;14.03;;
78903;SDS011;68291;49.602;8.722;2023-05-09T07:03:16;15.60;;;13.33;;
78903;SDS011;68291;49.602;8.722;2023-05-09T07:06:24;16.07;;;13.30;;
78903;SDS011;68291;49.602;8.722;2023-05-09T07:09:37;15.30;;;13.60;;
78903;SDS011;68291;49.602;8.722;2023-05-09T07:12:28;19.53;;;14.03;;
78903;SDS011;68291;49.602;8.722;2023-05-09T07:15:26;16.53;;;13.80;;
78903;SDS011;68291;49.602;8.722;2023-05-09T07:18:28;14.80;;;13.23;;
78903;SDS011;68291;49.602;8.722;2023-05-09T07:21:26;16.50;;;13.33;;
78903;SDS011;68291;49.602;8.722;2023-05-09T07:24:15;14.70;;;12.07;;
78903;SDS011;68291;49.602;8.722;2023-05-09T07:27:29;14.20;;;12.70;;
78903;SDS011;68291;49.602;8.722;2023-05-09T07:30:20;16.30;;;12.90;;
78903;SDS011;68291;49.602;8.722;2023-05-09T07:33:19;15.20;;;13.60;;
78903;SDS011;68291;49.602;8.722;2023-05-09T07:36:17;16.53;;;12.87;;
78903;SDS011;68291;49.602;8.722;2023-05-09T07:39:36;13.43;;;12.03;;
78903;SDS011;68291;49.602;8.722;2023-05-09T07:42:37;15.00;;;12.50;;
78903;SDS011;68291;49.602;8.722;2023-05-09T07:45:38;17.13;;;13.40;;
78903;SDS011;68291;49.602;8.722;2023-05-09T07:48:32;16.07;;;11.83;;
78903;SDS011;68291;49.602;8.722;2023-05-09T07:51:23;13.43;;;11.73;;
78903;SDS011;68291;49.602;8.722;2023-05-09T07:54:21;15.77;;;12.47;;
78903;SDS011;68291;49.602;8.722;2023-05-09T07:57:19;14.17;;;12.43;;
78903;SDS011;68291;49.602;8.722;2023-05-09T08:00:21;14.40;;;12.23;;
78903;SDS011;68291;49.602;8.722;2023-05-09T08:03:14;15.83;;;14.13;;
78903;SDS011;68291;49.602;8.722;2023-05-09T08:06:11;15.27;;;13.47;;
78903;SDS011;68291;49.602;8.722;2023-05-09T08:09:27;18.40;;;13.40;;
78903;SDS011;68291;49.602;8.722;2023-05-09T08:12:24;15.13;;;13.53;;
78903;SDS011;68291;49.602;8.722;2023-05-09T08:15:42;17.53;;;13.80;;
78903;SDS011;68291;49.602;8.722;2023-05-09T08:18:33;17.63;;;13.30;;
78903;SDS011;68291;49.602;8.722;2023-05-09T08:21:32;16.33;;;13.13;;
78903;SDS011;68291;49.602;8.722;2023-05-09T08:24:21;16.47;;;13.20;;
78903;SDS011;68291;49.602;8.722;2023-05-09T08:27:22;15.10;;;12.87;;
78903;SDS011;68291;49.602;8.722;2023-05-09T08:30:13;16.67;;;13.60;;
78903;SDS011;68291;49.602;8.722;2023-05-09T08:33:30;15.13;;;12.77;;
78903;SDS011;68291;49.602;8.722;2023-05-09T08:36:26;15.73;;;12.80;;
78903;SDS011;68291;49.602;8.722;2023-05-09T08:39:22;14.63;;;12.93;;
78903;SDS011;68291;49.602;8.722;2023-05-09T08:42:20;14.47;;;12.97;;
78903;SDS011;68291;49.602;8.722;2023-05-09T08:45:21;15.27;;;13.50;;
78903;SDS011;68291;49.602;8.722;2023-05-09T08:48:29;14.87;;;12.77;;
78903;SDS011;68291;49.602;8.722;2023-05-09T08:51:34;14.10;;;12.03;;
78903;SDS011;68291;49.602;8.722;2023-05-09T08:54:24;15.40;;;12.77;;
78903;SDS011;68291;49.602;8.722;2023-05-09T08:57:15;13.67;;;12.27;;
78903;SDS011;68291;49.602;8.722;2023-05-09T09:00:13;14.27;;;11.93;;
78903;SDS011;68291;49.602;8.722;2023-05-09T09:03:11;15.57;;;13.77;;
78903;SDS011;68291;49.602;8.722;2023-05-09T09:06:18;14.30;;;12.80;;
78903;SDS011;68291;49.602;8.722;2023-05-09T09:09:25;16.30;;;13.20;;
78903;SDS011;68291;49.602;8.722;2023-05-09T09:12:17;14.70;;;12.87;;
78903;SDS011;68291;49.602;8.722;2023-05-09T09:15:14;15.33;;;13.73;;
78903;SDS011;68291;49.602;8.722;2023-05-09T09:18:15;16.20;;;13.90;;
78903;SDS011;68291;49.602;8.722;2023-05-09T09:21:16;17.53;;;13.93;;
78903;SDS011;68291;49.602;8.722;2023-05-09T09:24:14;16.77;;;13.27;;
78903;SDS011;68291;49.602;8.722;2023-05-09T09:27:28;16.13;;;13.57;;
78903;SDS011;68291;49.602;8.722;2023-05-09T09:30:22;16.53;;;13.23;;
78903;SDS011;68291;49.602;8.722;2023-05-09T09:33:21;14.07;;;12.60;;
78903;SDS011;68291;49.602;8.722;2023-05-09T09:36:31;13.83;;;12.23;;
78903;SDS011;68291;49.602;8.722;2023-05-09T09:39:28;13.43;;;11.97;;
78903;SDS011;68291;49.602;8.722;2023-05-09T09:42:32;13.83;;;12.03;;
78903;SDS011;68291;49.602;8.722;2023-05-09T09:45:41;12.87;;;11.57;;
78903;SDS011;68291;49.602;8.722;2023-05-09T09:48:40;14.10;;;12.70;;
78903;SDS011;68291;49.602;8.722;2023-05-09T09:52:01;17.23;;;12.63;;
78903;SDS011;68291;49.602;8.722;2023-05-09T09:54:56;15.07;;;12.80;;
78903;SDS011;68291;49.602;8.722;2023-05-09T09:57:54;12.90;;;11.50;;
78903;SDS011;68291;49.602;8.722;2023-05-09T10:00:43;12.50;;;11.20;;
78903;SDS011;68291;49.602;8.722;2023-05-09T10:03:42;11.57;;;10.43;;
78903;SDS011;68291;49.602;8.722;2023-05-09T10:06:50;12.10;;;10.90;;
78903;SDS011;68291;49.602;8.722;2023-05-09T10:09:58;11.87;;;9.80;;
78903;SDS011;68291;49.602;8.722;2023-05-09T10:12:53;10.90;;;9.80;;
78903;SDS011;68291;49.602;8.722;2023-05-09T10:15:48;10.87;;;9.87;;
78903;SDS011;68291;49.602;8.722;2023-05-09T10:18:46;11.77;;;10.67;;
78903;SDS011;68291;49.602;8.722;2023-05-09T10:21:36;10.60;;;9.50;;
78903;SDS011;68291;49.602;8.722;2023-05-09T10:24:37;13.50;;;9.57;;
78903;SDS011;68291;49.602;8.722;2023-05-09T10:28:04;13.27;;;9.23;;
78903;SDS011;68291;49.602;8.722;2023-05-09T10:31:00;11.33;;;8.53;;
78903;SDS011;68291;49.602;8.722;2023-05-09T10:34:07;11.30;;;9.10;;
78903;SDS011;68291;49.602;8.722;2023-05-09T10:37:07;9.97;;;9.03;;
78903;SDS011;68291;49.602;8.722;2023-05-09T10:40:05;9.23;;;8.33;;
78903;SDS011;68291;49.602;8.722;2023-05-09T10:43:07;10.67;;;8.63;;
78903;SDS011;68291;49.602;8.722;2023-05-09T10:46:01;9.40;;;8.50;;
78903;SDS011;68291;49.602;8.722;2023-05-09T10:49:02;9.10;;;7.97;;
78903;SDS011;68291;49.602;8.722;2023-05-09T10:52:00;9.80;;;8.17;;
78903;SDS011;68291;49.602;8.722;2023-05-09T10:54:58;7.83;;;7.13;;
78903;SDS011;68291;49.602;8.722;2023-05-09T10:57:56;8.13;;;7.43;;
78903;SDS011;68291;49.602;8.722;2023-05-09T11:01:29;10.37;;;7.73;;
78903;SDS011;68291;49.602;8.722;2023-05-09T11:04:24;7.73;;;6.93;;
78903;SDS011;68291;49.602;8.722;2023-05-09T11:07:22;7.20;;;6.50;;
78903;SDS011;68291;49.602;8.722;2023-05-09T11:10:41;6.77;;;6.27;;
78903;SDS011;68291;49.602;8.722;2023-05-09T11:13:46;6.53;;;5.93;;
78903;SDS011;68291;49.602;8.722;2023-05-09T11:16:38;5.63;;;5.10;;
78903;SDS011;68291;49.602;8.722;2023-05-09T11:19:56;5.07;;;4.67;;
78903;SDS011;68291;49.602;8.722;2023-05-09T11:23:08;5.00;;;4.50;;
78903;SDS011;68291;49.602;8.722;2023-05-09T11:26:05;7.30;;;4.03;;
78903;SDS011;68291;49.602;8.722;2023-05-09T11:29:10;4.57;;;4.17;;
78903;SDS011;68291;49.602;8.722;2023-05-09T11:32:05;4.67;;;4.27;;
78903;SDS011;68291;49.602;8.722;2023-05-09T11:35:18;4.73;;;4.33;;
78903;SDS011;68291;49.602;8.722;2023-05-09T11:38:22;6.30;;;4.30;;
78903;SDS011;68291;49.602;8.722;2023-05-09T11:41:11;6.60;;;4.60;;
78903;SDS011;68291;49.602;8.722;2023-05-09T11:44:23;6.37;;;3.87;;
78903;SDS011;68291;49.602;8.722;2023-05-09T11:47:16;4.67;;;3.70;;
78903;SDS011;68291;49.602;8.722;2023-05-09T11:50:25;4.37;;;3.53;;
78903;SDS011;68291;49.602;8.722;2023-05-09T11:53:22;4.43;;;3.23;;
78903;SDS011;68291;49.602;8.722;2023-05-09T11:56:22;4.37;;;3.97;;
78903;SDS011;68291;49.602;8.722;2023-05-09T11:59:34;4.17;;;3.73;;
78903;SDS011;68291;49.602;8.722;2023-05-09T12:02:34;4.87;;;3.80;;
78903;SDS011;68291;49.602;8.722;2023-05-09T12:05:23;4.17;;;3.77;;
78903;SDS011;68291;49.602;8.722;2023-05-09T12:08:21;5.07;;;3.60;;
78903;SDS011;68291;49.602;8.722;2023-05-09T12:11:19;4.10;;;3.63;;
78903;SDS011;68291;49.602;8.722;2023-05-09T12:14:32;4.07;;;3.57;;
78903;SDS011;68291;49.602;8.722;2023-05-09T12:17:35;4.33;;;3.43;;
78903;SDS011;68291;49.602;8.722;2023-05-09T12:20:40;4.33;;;3.50;;
78903;SDS011;68291;49.602;8.722;2023-05-09T12:23:33;4.23;;;3.83;;
78903;SDS011;68291;49.602;8.722;2023-05-09T12:26:29;8.43;;;4.10;;
78903;SDS011;68291;49.602;8.722;2023-05-09T12:29:42;4.40;;;3.93;;
78903;SDS011;68291;49.602;8.722;2023-05-09T12:32:35;5.17;;;4.10;;
78903;SDS011;68291;49.602;8.722;2023-05-09T12:35:26;3.53;;;3.23;;
78903;SDS011;68291;49.602;8.722;2023-05-09T12:38:35;3.77;;;3.47;;
78903;SDS011;68291;49.602;8.722;2023-05-09T12:41:26;4.70;;;3.07;;
78903;SDS011;68291;49.602;8.722;2023-05-09T12:44:39;5.43;;;3.50;;
78903;SDS011;68291;49.602;8.722;2023-05-09T12:47:50;6.23;;;3.83;;
78903;SDS011;68291;49.602;8.722;2023-05-09T12:50:50;6.27;;;4.10;;
78903;SDS011;68291;49.602;8.722;2023-05-09T12:53:39;3.83;;;3.53;;
78903;SDS011;68291;49.602;8.722;2023-05-09T12:56:36;3.90;;;3.60;;
78903;SDS011;68291;49.602;8.722;2023-05-09T12:59:26;4.30;;;3.90;;
78903;SDS011;68291;49.602;8.722;2023-05-09T13:02:42;4.23;;;3.30;;
78903;SDS011;68291;49.602;8.722;2023-05-09T13:05:53;5.47;;;3.47;;
78903;SDS011;68291;49.602;8.722;2023-05-09T13:08:43;6.43;;;3.73;;
78903;SDS011;68291;49.602;8.722;2023-05-09T13:11:45;4.10;;;3.80;;
78903;SDS011;68291;49.602;8.722;2023-05-09T13:14:43;3.57;;;3.27;;
78903;SDS011;68291;49.602;8.722;2023-05-09T13:18:07;3.80;;;3.50;;
78903;SDS011;68291;49.602;8.722;2023-05-09T13:21:08;3.83;;;3.53;;
78903;SDS011;68291;49.602;8.722;2023-05-09T13:24:00;3.83;;;3.43;;
78903;SDS011;68291;49.602;8.722;2023-05-09T13:26:56;3.40;;;3.10;;
78903;SDS011;68291;49.602;8.722;2023-05-09T13:29:58;3.63;;;3.33;;
78903;SDS011;68291;49.602;8.722;2023-05-09T13:33:11;3.30;;;3.00;;
78903;SDS011;68291;49.602;8.722;2023-05-09T13:36:15;4.80;;;3.20;;
78903;SDS011;68291;49.602;8.722;2023-05-09T13:39:13;4.20;;;3.37;;
78903;SDS011;68291;49.602;8.722;2023-05-09T13:42:11;3.53;;;3.23;;
78903;SDS011;68291;49.602;8.722;2023-05-09T13:45:09;3.60;;;3.30;;
78903;SDS011;68291;49.602;8.722;2023-05-09T13:48:14;3.87;;;3.10;;
78903;SDS011;68291;49.602;8.722;2023-05-09T13:51:23;3.47;;;3.00;;
78903;SDS011;68291;49.602;8.722;2023-05-09T13:54:20;6.27;;;3.37;;
78903;SDS011;68291;49.602;8.722;2023-05-09T13:57:37;3.57;;;3.27;;
78903;SDS011;68291;49.602;8.722;2023-05-09T14:00:31;4.30;;;3.20;;
78903;SDS011;68291;49.602;8.722;2023-05-09T14:03:49;3.87;;;3.40;;
78903;SDS011;68291;49.602;8.722;2023-05-09T14:06:44;3.60;;;3.30;;
78903;SDS011;68291;49.602;8.722;2023-05-09T14:09:48;3.90;;;3.40;;
78903;SDS011;68291;49.602;8.722;2023-05-09T14:12:56;3.77;;;3.50;;
78903;SDS011;68291;49.602;8.722;2023-05-09T14:15:51;3.87;;;3.57;;
78903;SDS011;68291;49.602;8.722;2023-05-09T14:18:49;4.00;;;3.63;;
78903;SDS011;68291;49.602;8.722;2023-05-09T14:21:38;4.53;;;3.80;;
78903;SDS011;68291;49.602;8.722;2023-05-09T14:24:36;4.13;;;3.73;;
78903;SDS011;68291;49.602;8.722;2023-05-09T14:27:34;4.90;;;3.50;;
78903;SDS011;68291;49.602;8.722;2023-05-09T14:30:33;4.60;;;3.37;;
78903;SDS011;68291;49.602;8.722;2023-05-09T14:33:44;5.33;;;3.80;;
78903;SDS011;68291;49.602;8.722;2023-05-09T14:36:56;4.03;;;3.70;;
78903;SDS011;68291;49.602;8.722;2023-05-09T14:39:49;3.77;;;3.43;;
78903;SDS011;68291;49.602;8.722;2023-05-09T14:42:37;6.27;;;4.10;;
78903;SDS011;68291;49.602;8.722;2023-05-09T14:45:36;4.47;;;3.60;;
78903;SDS011;68291;49.602;8.722;2023-05-09T14:48:36;5.30;;;3.53;;
78903;SDS011;68291;49.602;8.722;2023-05-09T14:51:46;6.03;;;3.90;;
78903;SDS011;68291;49.602;8.722;2023-05-09T14:54:36;4.50;;;3.60;;
78903;SDS011;68291;49.602;8.722;2023-05-09T14:57:34;4.30;;;3.90;;
78903;SDS011;68291;49.602;8.722;2023-05-09T15:00:37;4.60;;;4.20;;
78903;SDS011;68291;49.602;8.722;2023-05-09T15:03:44;6.67;;;3.53;;
78903;SDS011;68291;49.602;8.722;2023-05-09T15:06:56;4.37;;;3.97;;
78903;SDS011;68291;49.602;8.722;2023-05-09T15:10:00;5.50;;;3.37;;
78903;SDS011;68291;49.602;8.722;2023-05-09T15:13:01;3.93;;;3.63;;
78903;SDS011;68291;49.602;8.722;2023-05-09T15:16:16;5.47;;;3.90;;
78903;SDS011;68291;49.602;8.722;2023-05-09T15:19:08;3.90;;;3.50;;
78903;SDS011;68291;49.602;8.722;2023-05-09T15:22:18;4.53;;;3.70;;
78903;SDS011;68291;49.602;8.722;2023-05-09T15:25:25;5.33;;;3.70;;
78903;SDS011;68291;49.602;8.722;2023-05-09T15:28:23;10.20;;;4.10;;
78903;SDS011;68291;49.602;8.722;2023-05-09T15:31:21;6.37;;;4.07;;
78903;SDS011;68291;49.602;8.722;2023-05-09T15:34:20;4.37;;;3.63;;
78903;SDS011;68291;49.602;8.722;2023-05-09T15:37:19;4.70;;;3.80;;
78903;SDS011;68291;49.602;8.722;2023-05-09T15:40:32;7.07;;;4.07;;
78903;SDS011;68291;49.602;8.722;2023-05-09T15:43:30;39.50;;;7.07;;
78903;SDS011;68291;49.602;8.722;2023-05-09T15:46:28;90.63;;;13.63;;
78903;SDS011;68291;49.602;8.722;2023-05-09T15:49:26;11.77;;;4.97;;
78903;SDS011;68291;49.602;8.722;2023-05-09T15:52:31;21.77;;;6.40;;
78903;SDS011;68291;49.602;8.722;2023-05-09T15:55:22;47.13;;;17.27;;
78903;SDS011;68291;49.602;8.722;2023-05-09T15:58:13;7.33;;;6.13;;
78903;SDS011;68291;49.602;8.722;2023-05-09T16:01:04;10.43;;;6.43;;
78903;SDS011;68291;49.602;8.722;2023-05-09T16:04:12;7.67;;;5.27;;
78903;SDS011;68291;49.602;8.722;2023-05-09T16:07:10;6.60;;;4.63;;
78903;SDS011;68291;49.602;8.722;2023-05-09T16:10:17;4.63;;;4.13;;
78903;SDS011;68291;49.602;8.722;2023-05-09T16:13:07;4.70;;;4.30;;
78903;SDS011;68291;49.602;8.722;2023-05-09T16:16:05;6.33;;;5.37;;
78903;SDS011;68291;49.602;8.722;2023-05-09T16:19:04;5.67;;;4.90;;
78903;SDS011;68291;49.602;8.722;2023-05-09T16:21:55;7.07;;;4.40;;
78903;SDS011;68291;49.602;8.722;2023-05-09T16:24:52;7.17;;;4.80;;
78903;SDS011;68291;49.602;8.722;2023-05-09T16:27:46;5.50;;;5.00;;
78903;SDS011;68291;49.602;8.722;2023-05-09T16:30:35;6.30;;;5.13;;
78903;SDS011;68291;49.602;8.722;2023-05-09T16:33:24;7.40;;;5.73;;
78903;SDS011;68291;49.602;8.722;2023-05-09T16:36:23;8.60;;;5.63;;
78903;SDS011;68291;49.602;8.722;2023-05-09T16:39:28;10.80;;;6.50;;
78903;SDS011;68291;49.602;8.722;2023-05-09T16:42:26;9.63;;;7.43;;
78903;SDS011;68291;49.602;8.722;2023-05-09T16:45:47;8.10;;;6.70;;
78903;SDS011;68291;49.602;8.722;2023-05-09T16:48:52;6.23;;;5.67;;
78903;SDS011;68291;49.602;8.722;2023-05-09T16:51:49;7.43;;;6.60;;
78903;SDS011;68291;49.602;8.722;2023-05-09T16:54:42;8.80;;;5.80;;
78903;SDS011;68291;49.602;8.722;2023-05-09T16:57:57;7.87;;;6.03;;
78903;SDS011;68291;49.602;8.722;2023-05-09T17:00:54;6.33;;;5.83;;
78903;SDS011;68291;49.602;8.722;2023-05-09T17:03:46;6.67;;;6.03;;
78903;SDS011;68291;49.602;8.722;2023-05-09T17:06:35;6.87;;;5.17;;
78903;SDS011;68291;49.602;8.722;2023-05-09T17:09:33;5.77;;;5.27;;
78903;SDS011;68291;49.602;8.722;2023-05-09T17:12:48;7.80;;;5.43;;
78903;SDS011;68291;49.602;8.722;2023-05-09T17:15:44;5.90;;;5.27;;
78903;SDS011;68291;49.602;8.722;2023-05-09T17:18:51;7.90;;;5.63;;
78903;SDS011;68291;49.602;8.722;2023-05-09T17:21:44;5.57;;;5.07;;
78903;SDS011;68291;49.602;8.722;2023-05-09T17:24:42;5.83;;;4.90;;
78903;SDS011;68291;49.602;8.722;2023-05-09T17:27:32;7.33;;;5.40;;
78903;SDS011;68291;49.602;8.722;2023-05-09T17:30:22;6.37;;;5.53;;
78903;SDS011;68291;49.602;8.722;2023-05-09T17:33:37;6.77;;;5.80;;
78903;SDS011;68291;49.602;8.722;2023-05-09T17:36:42;8.33;;;6.10;;
78903;SDS011;68291;49.602;8.722;2023-05-09T17:39:36;5.73;;;5.33;;
78903;SDS011;68291;49.602;8.722;2023-05-09T17:42:27;6.43;;;5.30;;
78903;SDS011;68291;49.602;8.722;2023-05-09T17:45:25;12.03;;;6.77;;
78903;SDS011;68291;49.602;8.722;2023-05-09T17:48:25;5.53;;;5.13;;
78903;SDS011;68291;49.602;8.722;2023-05-09T17:51:18;6.50;;;5.00;;
78903;SDS011;68291;49.602;8.722;2023-05-09T17:54:46;7.53;;;6.00;;